sensor_id;sensor_type;location;lat;lon;timestamp;temperature;humidity
41762;DHT22;27441;50.860;0.258;2022-12-29T00:01:52;8.90;99.90
41762;DHT22;27441;50.860;0.258;2022-12-29T00:04:18;8.80;99.90
41762;DHT22;27441;50.860;0.258;2022-12-29T00:06:44;8.80;99.90
41762;DHT22;27441;50.860;0.258;2022-12-29T00:09:12;8.80;99.90
41762;DHT22;27441;50.860;0.258;2022-12-29T00:11:38;8.80;99.90
41762;DHT22;27441;50.860;0.258;2022-12-29T00:14:05;8.90;99.90
41762;DHT22;27441;50.860;0.258;2022-12-29T00:16:49;8.90;99.90
41762;DHT22;27441;50.860;0.258;2022-12-29T00:19:15;8.90;99.90
41762;DHT22;27441;50.860;0.258;2022-12-29T00:21:59;9.10;99.90
41762;DHT22;27441;50.860;0.258;2022-12-29T00:24:44;9.20;99.90
41762;DHT22;27441;50.860;0.258;2022-12-29T00:27:19;9.30;99.90
41762;DHT22;27441;50.860;0.258;2022-12-29T00:30:10;9.30;99.90
41762;DHT22;27441;50.860;0.258;2022-12-29T00:32:54;9.20;99.90
41762;DHT22;27441;50.860;0.258;2022-12-29T00:35:39;9.30;99.90
41762;DHT22;27441;50.860;0.258;2022-12-29T00:38:08;9.10;99.90
41762;DHT22;27441;50.860;0.258;2022-12-29T00:40:52;9.10;99.90
41762;DHT22;27441;50.860;0.258;2022-12-29T00:43:37;9.00;99.90
41762;DHT22;27441;50.860;0.258;2022-12-29T00:46:21;8.80;99.90
41762;DHT22;27441;50.860;0.258;2022-12-29T00:48:46;8.80;99.90
41762;DHT22;27441;50.860;0.258;2022-12-29T00:51:30;8.80;99.90
41762;DHT22;27441;50.860;0.258;2022-12-29T00:56:22;8.70;99.90
41762;DHT22;27441;50.860;0.258;2022-12-29T00:58:48;8.60;99.90
41762;DHT22;27441;50.860;0.258;2022-12-29T01:01:14;8.60;99.90
41762;DHT22;27441;50.860;0.258;2022-12-29T01:03:39;8.70;99.90
41762;DHT22;27441;50.860;0.258;2022-12-29T01:06:09;8.60;99.90
41762;DHT22;27441;50.860;0.258;2022-12-29T01:11:04;8.60;99.90
41762;DHT22;27441;50.860;0.258;2022-12-29T01:13:30;8.70;99.90
41762;DHT22;27441;50.860;0.258;2022-12-29T01:15:55;8.70;99.90
41762;DHT22;27441;50.860;0.258;2022-12-29T01:18:21;8.70;99.90
41762;DHT22;27441;50.860;0.258;2022-12-29T01:20:47;8.90;99.90
41762;DHT22;27441;50.860;0.258;2022-12-29T01:23:13;8.90;99.90
41762;DHT22;27441;50.860;0.258;2022-12-29T01:25:38;8.90;99.90
41762;DHT22;27441;50.860;0.258;2022-12-29T01:28:04;8.90;99.90
41762;DHT22;27441;50.860;0.258;2022-12-29T01:30:30;8.90;99.90
41762;DHT22;27441;50.860;0.258;2022-12-29T01:32:56;9.00;99.90
41762;DHT22;27441;50.860;0.258;2022-12-29T01:35:21;9.00;99.90
41762;DHT22;27441;50.860;0.258;2022-12-29T01:37:47;9.10;99.90
41762;DHT22;27441;50.860;0.258;2022-12-29T01:40:13;9.10;99.90
41762;DHT22;27441;50.860;0.258;2022-12-29T01:42:38;8.80;99.90
41762;DHT22;27441;50.860;0.258;2022-12-29T01:47:53;8.40;99.90
41762;DHT22;27441;50.860;0.258;2022-12-29T01:52:59;8.30;99.90
41762;DHT22;27441;50.860;0.258;2022-12-29T01:55:27;8.20;99.90
41762;DHT22;27441;50.860;0.258;2022-12-29T01:57:56;8.10;99.90
41762;DHT22;27441;50.860;0.258;2022-12-29T02:02:52;8.20;99.90
41762;DHT22;27441;50.860;0.258;2022-12-29T02:05:29;8.30;99.90
41762;DHT22;27441;50.860;0.258;2022-12-29T02:07:55;8.40;99.90
41762;DHT22;27441;50.860;0.258;2022-12-29T02:10:24;8.60;99.90
41762;DHT22;27441;50.860;0.258;2022-12-29T02:18:15;8.40;99.90
41762;DHT22;27441;50.860;0.258;2022-12-29T02:23:35;8.10;99.90
41762;DHT22;27441;50.860;0.258;2022-12-29T02:29:40;7.90;99.90
41762;DHT22;27441;50.860;0.258;2022-12-29T02:32:22;7.80;99.90
41762;DHT22;27441;50.860;0.258;2022-12-29T02:37:31;8.00;99.90
41762;DHT22;27441;50.860;0.258;2022-12-29T02:40:05;7.90;99.90
41762;DHT22;27441;50.860;0.258;2022-12-29T02:43:00;8.00;99.90
41762;DHT22;27441;50.860;0.258;2022-12-29T02:45:37;8.30;99.90
41762;DHT22;27441;50.860;0.258;2022-12-29T02:48:07;8.10;99.90
41762;DHT22;27441;50.860;0.258;2022-12-29T02:50:36;8.40;99.90
41762;DHT22;27441;50.860;0.258;2022-12-29T02:53:05;8.50;99.90
41762;DHT22;27441;50.860;0.258;2022-12-29T02:55:32;8.40;99.90
41762;DHT22;27441;50.860;0.258;2022-12-29T03:01:07;8.10;99.90
41762;DHT22;27441;50.860;0.258;2022-12-29T03:08:46;7.90;99.90
41762;DHT22;27441;50.860;0.258;2022-12-29T03:14:28;7.90;99.90
41762;DHT22;27441;50.860;0.258;2022-12-29T03:17:29;8.00;99.90
41762;DHT22;27441;50.860;0.258;2022-12-29T03:20:01;8.00;99.90
41762;DHT22;27441;50.860;0.258;2022-12-29T03:22:27;8.10;99.90
41762;DHT22;27441;50.860;0.258;2022-12-29T03:24:59;8.40;99.90
41762;DHT22;27441;50.860;0.258;2022-12-29T03:27:29;8.30;99.90
41762;DHT22;27441;50.860;0.258;2022-12-29T03:29:57;8.60;99.90
41762;DHT22;27441;50.860;0.258;2022-12-29T03:32:25;8.40;99.90
41762;DHT22;27441;50.860;0.258;2022-12-29T03:34:51;8.40;99.90
41762;DHT22;27441;50.860;0.258;2022-12-29T03:42:14;8.60;99.90
41762;DHT22;27441;50.860;0.258;2022-12-29T03:47:11;8.60;99.90
41762;DHT22;27441;50.860;0.258;2022-12-29T03:49:37;8.50;99.90
41762;DHT22;27441;50.860;0.258;2022-12-29T03:52:02;8.50;99.90
41762;DHT22;27441;50.860;0.258;2022-12-29T03:56:55;8.70;99.90
41762;DHT22;27441;50.860;0.258;2022-12-29T04:01:47;8.60;99.90
41762;DHT22;27441;50.860;0.258;2022-12-29T04:06:39;8.70;99.90
41762;DHT22;27441;50.860;0.258;2022-12-29T04:09:05;9.00;99.90
41762;DHT22;27441;50.860;0.258;2022-12-29T04:11:31;8.90;99.90
41762;DHT22;27441;50.860;0.258;2022-12-29T04:16:23;9.00;99.90
41762;DHT22;27441;50.860;0.258;2022-12-29T04:18:49;9.10;99.90
41762;DHT22;27441;50.860;0.258;2022-12-29T04:23:41;9.20;99.90
41762;DHT22;27441;50.860;0.258;2022-12-29T04:26:07;9.10;99.90
41762;DHT22;27441;50.860;0.258;2022-12-29T04:28:33;9.20;99.90
41762;DHT22;27441;50.860;0.258;2022-12-29T04:30:59;9.10;99.90
41762;DHT22;27441;50.860;0.258;2022-12-29T04:33:25;9.10;99.90
41762;DHT22;27441;50.860;0.258;2022-12-29T04:35:51;9.10;99.90
41762;DHT22;27441;50.860;0.258;2022-12-29T04:38:20;9.50;99.90
41762;DHT22;27441;50.860;0.258;2022-12-29T04:40:46;9.20;99.90
41762;DHT22;27441;50.860;0.258;2022-12-29T04:43:13;9.20;99.90
41762;DHT22;27441;50.860;0.258;2022-12-29T04:45:46;9.20;99.90
41762;DHT22;27441;50.860;0.258;2022-12-29T04:48:12;9.20;99.90
41762;DHT22;27441;50.860;0.258;2022-12-29T04:50:39;9.20;99.90
41762;DHT22;27441;50.860;0.258;2022-12-29T04:53:05;9.20;99.90
41762;DHT22;27441;50.860;0.258;2022-12-29T04:55:30;9.20;99.90
41762;DHT22;27441;50.860;0.258;2022-12-29T04:57:56;9.10;99.90
41762;DHT22;27441;50.860;0.258;2022-12-29T05:00:22;9.10;99.90
41762;DHT22;27441;50.860;0.258;2022-12-29T05:02:47;9.10;99.90
41762;DHT22;27441;50.860;0.258;2022-12-29T05:05:13;9.10;99.90
41762;DHT22;27441;50.860;0.258;2022-12-29T05:07:39;9.00;99.90
41762;DHT22;27441;50.860;0.258;2022-12-29T05:10:05;8.90;99.90
41762;DHT22;27441;50.860;0.258;2022-12-29T05:12:33;8.90;99.90
41762;DHT22;27441;50.860;0.258;2022-12-29T05:14:59;8.90;99.90
41762;DHT22;27441;50.860;0.258;2022-12-29T05:17:26;8.90;99.90
41762;DHT22;27441;50.860;0.258;2022-12-29T05:19:51;8.90;99.90
41762;DHT22;27441;50.860;0.258;2022-12-29T05:22:17;8.90;99.90
41762;DHT22;27441;50.860;0.258;2022-12-29T05:24:42;9.00;99.90
41762;DHT22;27441;50.860;0.258;2022-12-29T05:27:08;9.00;99.90
41762;DHT22;27441;50.860;0.258;2022-12-29T05:32:00;9.10;99.90
41762;DHT22;27441;50.860;0.258;2022-12-29T05:34:26;9.10;99.90
41762;DHT22;27441;50.860;0.258;2022-12-29T05:36:52;9.10;99.90
41762;DHT22;27441;50.860;0.258;2022-12-29T05:39:18;9.20;99.90
41762;DHT22;27441;50.860;0.258;2022-12-29T05:41:43;9.20;99.90
41762;DHT22;27441;50.860;0.258;2022-12-29T05:44:10;9.20;99.90
41762;DHT22;27441;50.860;0.258;2022-12-29T05:46:35;9.20;99.90
41762;DHT22;27441;50.860;0.258;2022-12-29T05:49:01;9.00;99.90
41762;DHT22;27441;50.860;0.258;2022-12-29T05:51:26;9.30;99.90
41762;DHT22;27441;50.860;0.258;2022-12-29T05:53:52;9.20;99.90
41762;DHT22;27441;50.860;0.258;2022-12-29T05:56:18;9.10;99.90
41762;DHT22;27441;50.860;0.258;2022-12-29T06:01:10;9.10;99.90
41762;DHT22;27441;50.860;0.258;2022-12-29T06:03:35;9.10;99.90
41762;DHT22;27441;50.860;0.258;2022-12-29T06:13:19;9.30;99.90
41762;DHT22;27441;50.860;0.258;2022-12-29T06:15:47;9.20;99.90
41762;DHT22;27441;50.860;0.258;2022-12-29T06:18:13;9.20;99.90
41762;DHT22;27441;50.860;0.258;2022-12-29T06:20:38;9.10;99.90
41762;DHT22;27441;50.860;0.258;2022-12-29T06:23:04;9.00;99.90
41762;DHT22;27441;50.860;0.258;2022-12-29T06:25:30;9.00;99.90
41762;DHT22;27441;50.860;0.258;2022-12-29T06:27:57;8.90;99.90
41762;DHT22;27441;50.860;0.258;2022-12-29T06:30:23;9.00;99.90
41762;DHT22;27441;50.860;0.258;2022-12-29T06:32:49;8.80;99.90
41762;DHT22;27441;50.860;0.258;2022-12-29T06:35:15;8.70;99.90
41762;DHT22;27441;50.860;0.258;2022-12-29T06:37:40;8.80;99.90
41762;DHT22;27441;50.860;0.258;2022-12-29T06:40:06;8.60;99.90
41762;DHT22;27441;50.860;0.258;2022-12-29T06:42:32;8.60;99.90
41762;DHT22;27441;50.860;0.258;2022-12-29T06:47:26;8.50;99.90
41762;DHT22;27441;50.860;0.258;2022-12-29T06:54:43;8.40;99.90
41762;DHT22;27441;50.860;0.258;2022-12-29T06:57:09;8.30;99.90
41762;DHT22;27441;50.860;0.258;2022-12-29T06:59:35;8.40;99.90
41762;DHT22;27441;50.860;0.258;2022-12-29T07:02:01;8.30;99.90
41762;DHT22;27441;50.860;0.258;2022-12-29T07:04:28;8.30;99.90
41762;DHT22;27441;50.860;0.258;2022-12-29T07:06:54;8.20;99.90
41762;DHT22;27441;50.860;0.258;2022-12-29T07:09:19;8.20;99.90
41762;DHT22;27441;50.860;0.258;2022-12-29T07:11:45;8.30;99.90
41762;DHT22;27441;50.860;0.258;2022-12-29T07:14:11;8.30;99.90
41762;DHT22;27441;50.860;0.258;2022-12-29T07:16:37;8.20;99.90
41762;DHT22;27441;50.860;0.258;2022-12-29T07:19:03;8.30;99.90
41762;DHT22;27441;50.860;0.258;2022-12-29T07:21:28;8.30;99.90
41762;DHT22;27441;50.860;0.258;2022-12-29T07:26:21;8.40;99.90
41762;DHT22;27441;50.860;0.258;2022-12-29T07:28:46;8.30;99.90
41762;DHT22;27441;50.860;0.258;2022-12-29T07:31:20;8.20;99.90
41762;DHT22;27441;50.860;0.258;2022-12-29T07:36:14;8.40;99.90
41762;DHT22;27441;50.860;0.258;2022-12-29T07:41:07;8.30;99.90
41762;DHT22;27441;50.860;0.258;2022-12-29T07:43:33;8.20;99.90
41762;DHT22;27441;50.860;0.258;2022-12-29T07:48:25;8.20;99.90
41762;DHT22;27441;50.860;0.258;2022-12-29T07:53:17;8.00;99.90
41762;DHT22;27441;50.860;0.258;2022-12-29T07:58:09;7.80;99.90
41762;DHT22;27441;50.860;0.258;2022-12-29T08:03:01;7.60;99.90
41762;DHT22;27441;50.860;0.258;2022-12-29T08:05:26;7.60;99.90
41762;DHT22;27441;50.860;0.258;2022-12-29T08:07:52;7.70;99.90
41762;DHT22;27441;50.860;0.258;2022-12-29T08:10:18;7.70;99.90
41762;DHT22;27441;50.860;0.258;2022-12-29T08:12:44;7.80;99.90
41762;DHT22;27441;50.860;0.258;2022-12-29T08:15:10;7.60;99.90
41762;DHT22;27441;50.860;0.258;2022-12-29T08:17:37;7.60;99.90
41762;DHT22;27441;50.860;0.258;2022-12-29T08:20:03;7.60;99.90
41762;DHT22;27441;50.860;0.258;2022-12-29T08:22:29;7.60;99.90
41762;DHT22;27441;50.860;0.258;2022-12-29T08:24:55;7.50;99.90
41762;DHT22;27441;50.860;0.258;2022-12-29T08:27:20;7.50;99.90
41762;DHT22;27441;50.860;0.258;2022-12-29T08:29:46;7.50;99.90
41762;DHT22;27441;50.860;0.258;2022-12-29T08:32:11;7.50;99.90
41762;DHT22;27441;50.860;0.258;2022-12-29T08:34:37;7.70;99.90
41762;DHT22;27441;50.860;0.258;2022-12-29T08:37:03;7.80;99.90
41762;DHT22;27441;50.860;0.258;2022-12-29T08:41:55;8.10;99.90
41762;DHT22;27441;50.860;0.258;2022-12-29T08:44:21;8.30;99.90
41762;DHT22;27441;50.860;0.258;2022-12-29T08:51:38;8.10;99.90
41762;DHT22;27441;50.860;0.258;2022-12-29T08:54:04;8.10;99.90
41762;DHT22;27441;50.860;0.258;2022-12-29T08:56:30;8.20;99.90
41762;DHT22;27441;50.860;0.258;2022-12-29T09:01:22;8.10;99.90
41762;DHT22;27441;50.860;0.258;2022-12-29T09:08:41;8.30;99.90
41762;DHT22;27441;50.860;0.258;2022-12-29T09:13:41;8.30;99.90
41762;DHT22;27441;50.860;0.258;2022-12-29T09:16:07;8.30;99.90
41762;DHT22;27441;50.860;0.258;2022-12-29T09:18:32;8.40;99.90
41762;DHT22;27441;50.860;0.258;2022-12-29T09:21:02;8.40;99.90
41762;DHT22;27441;50.860;0.258;2022-12-29T09:23:29;8.50;99.90
41762;DHT22;27441;50.860;0.258;2022-12-29T09:28:21;8.40;99.90
41762;DHT22;27441;50.860;0.258;2022-12-29T09:30:47;8.60;99.90
41762;DHT22;27441;50.860;0.258;2022-12-29T09:33:13;8.30;99.90
41762;DHT22;27441;50.860;0.258;2022-12-29T09:38:05;9.30;99.90
41762;DHT22;27441;50.860;0.258;2022-12-29T09:47:48;9.10;99.90
41762;DHT22;27441;50.860;0.258;2022-12-29T09:50:20;9.10;99.90
41762;DHT22;27441;50.860;0.258;2022-12-29T09:52:49;9.10;99.90
41762;DHT22;27441;50.860;0.258;2022-12-29T09:55:17;9.00;99.90
41762;DHT22;27441;50.860;0.258;2022-12-29T09:57:54;9.10;99.90
41762;DHT22;27441;50.860;0.258;2022-12-29T10:00:22;8.90;99.90
41762;DHT22;27441;50.860;0.258;2022-12-29T10:03:05;8.90;99.90
41762;DHT22;27441;50.860;0.258;2022-12-29T10:05:58;8.80;99.90
41762;DHT22;27441;50.860;0.258;2022-12-29T10:14:19;8.80;99.90
41762;DHT22;27441;50.860;0.258;2022-12-29T10:23:35;8.90;99.90
41762;DHT22;27441;50.860;0.258;2022-12-29T10:25:39;8.80;99.90
41762;DHT22;27441;50.860;0.258;2022-12-29T10:28:18;8.80;99.90
41762;DHT22;27441;50.860;0.258;2022-12-29T10:30:47;8.80;99.90
41762;DHT22;27441;50.860;0.258;2022-12-29T10:33:19;8.70;99.90
41762;DHT22;27441;50.860;0.258;2022-12-29T10:35:50;8.70;99.90
41762;DHT22;27441;50.860;0.258;2022-12-29T10:38:23;8.70;99.90
41762;DHT22;27441;50.860;0.258;2022-12-29T10:43:26;8.70;99.90
41762;DHT22;27441;50.860;0.258;2022-12-29T10:45:52;8.90;99.90
41762;DHT22;27441;50.860;0.258;2022-12-29T10:48:22;9.00;99.90
41762;DHT22;27441;50.860;0.258;2022-12-29T10:50:50;8.90;99.90
41762;DHT22;27441;50.860;0.258;2022-12-29T10:53:21;8.80;99.90
41762;DHT22;27441;50.860;0.258;2022-12-29T10:55:48;8.80;99.90
41762;DHT22;27441;50.860;0.258;2022-12-29T10:58:15;8.90;99.90
41762;DHT22;27441;50.860;0.258;2022-12-29T11:00:42;9.00;99.90
41762;DHT22;27441;50.860;0.258;2022-12-29T11:08:30;9.20;99.90
41762;DHT22;27441;50.860;0.258;2022-12-29T11:11:07;9.30;99.90
41762;DHT22;27441;50.860;0.258;2022-12-29T11:13:57;9.50;99.90
41762;DHT22;27441;50.860;0.258;2022-12-29T11:16:29;9.80;99.90
41762;DHT22;27441;50.860;0.258;2022-12-29T11:18:56;10.20;99.90
41762;DHT22;27441;50.860;0.258;2022-12-29T11:21:38;10.30;99.90
41762;DHT22;27441;50.860;0.258;2022-12-29T11:26:46;10.00;99.90
41762;DHT22;27441;50.860;0.258;2022-12-29T11:31:49;9.80;99.90
41762;DHT22;27441;50.860;0.258;2022-12-29T11:34:33;9.80;99.90
41762;DHT22;27441;50.860;0.258;2022-12-29T11:37:58;9.80;99.90
41762;DHT22;27441;50.860;0.258;2022-12-29T11:40:14;9.80;99.90
41762;DHT22;27441;50.860;0.258;2022-12-29T11:42:51;9.80;99.90
41762;DHT22;27441;50.860;0.258;2022-12-29T11:45:26;9.90;99.90
41762;DHT22;27441;50.860;0.258;2022-12-29T11:47:58;9.90;99.90
41762;DHT22;27441;50.860;0.258;2022-12-29T11:50:26;9.90;99.90
41762;DHT22;27441;50.860;0.258;2022-12-29T11:53:01;9.90;99.90
41762;DHT22;27441;50.860;0.258;2022-12-29T11:55:29;9.90;99.90
41762;DHT22;27441;50.860;0.258;2022-12-29T11:57:57;9.90;99.90
41762;DHT22;27441;50.860;0.258;2022-12-29T12:00:23;9.90;99.90
41762;DHT22;27441;50.860;0.258;2022-12-29T12:02:54;9.80;99.90
41762;DHT22;27441;50.860;0.258;2022-12-29T12:10:40;9.60;99.90
41762;DHT22;27441;50.860;0.258;2022-12-29T12:15:58;9.60;99.90
41762;DHT22;27441;50.860;0.258;2022-12-29T12:18:33;9.50;99.90
41762;DHT22;27441;50.860;0.258;2022-12-29T12:21:10;9.50;99.90
41762;DHT22;27441;50.860;0.258;2022-12-29T12:26:15;9.30;99.90
41762;DHT22;27441;50.860;0.258;2022-12-29T12:29:00;9.20;99.90
41762;DHT22;27441;50.860;0.258;2022-12-29T12:34:19;9.30;99.90
41762;DHT22;27441;50.860;0.258;2022-12-29T12:42:21;9.50;99.90
41762;DHT22;27441;50.860;0.258;2022-12-29T12:50:20;7.80;99.90
41762;DHT22;27441;50.860;0.258;2022-12-29T12:58:23;7.80;99.90
41762;DHT22;27441;50.860;0.258;2022-12-29T13:03:28;7.80;99.90
41762;DHT22;27441;50.860;0.258;2022-12-29T13:19:56;7.90;99.90
41762;DHT22;27441;50.860;0.258;2022-12-29T13:31:20;8.20;99.90
41762;DHT22;27441;50.860;0.258;2022-12-29T13:36:48;8.40;99.90
41762;DHT22;27441;50.860;0.258;2022-12-29T13:39:30;8.40;99.90
41762;DHT22;27441;50.860;0.258;2022-12-29T13:41:58;8.40;99.90
41762;DHT22;27441;50.860;0.258;2022-12-29T13:44:53;8.40;99.90
41762;DHT22;27441;50.860;0.258;2022-12-29T13:47:31;8.40;99.90
41762;DHT22;27441;50.860;0.258;2022-12-29T13:50:00;8.40;99.90
41762;DHT22;27441;50.860;0.258;2022-12-29T13:52:44;8.40;99.90
41762;DHT22;27441;50.860;0.258;2022-12-29T14:01:15;8.50;99.90
41762;DHT22;27441;50.860;0.258;2022-12-29T14:03:49;8.50;99.90
41762;DHT22;27441;50.860;0.258;2022-12-29T14:08:42;8.60;99.90
41762;DHT22;27441;50.860;0.258;2022-12-29T14:11:14;8.60;99.90
41762;DHT22;27441;50.860;0.258;2022-12-29T14:13:43;8.70;99.90
41762;DHT22;27441;50.860;0.258;2022-12-29T14:18:50;8.60;99.90
41762;DHT22;27441;50.860;0.258;2022-12-29T14:23:46;8.50;99.90
41762;DHT22;27441;50.860;0.258;2022-12-29T14:26:15;8.60;99.90
41762;DHT22;27441;50.860;0.258;2022-12-29T14:28:48;8.50;99.90
41762;DHT22;27441;50.860;0.258;2022-12-29T14:33:41;8.50;99.90
41762;DHT22;27441;50.860;0.258;2022-12-29T14:36:37;8.50;99.90
41762;DHT22;27441;50.860;0.258;2022-12-29T14:40:01;8.50;99.90
41762;DHT22;27441;50.860;0.258;2022-12-29T14:42:19;8.50;99.90
41762;DHT22;27441;50.860;0.258;2022-12-29T14:44:53;8.40;99.90
41762;DHT22;27441;50.860;0.258;2022-12-29T14:47:35;8.40;99.90
41762;DHT22;27441;50.860;0.258;2022-12-29T14:50:10;8.30;99.90
41762;DHT22;27441;50.860;0.258;2022-12-29T14:52:44;8.30;99.90
41762;DHT22;27441;50.860;0.258;2022-12-29T14:57:52;8.40;99.90
41762;DHT22;27441;50.860;0.258;2022-12-29T15:00:30;8.40;99.90
41762;DHT22;27441;50.860;0.258;2022-12-29T15:03:10;8.30;99.90
41762;DHT22;27441;50.860;0.258;2022-12-29T15:08:13;8.20;99.90
41762;DHT22;27441;50.860;0.258;2022-12-29T15:10:47;8.20;99.90
41762;DHT22;27441;50.860;0.258;2022-12-29T15:13:22;8.20;99.90
41762;DHT22;27441;50.860;0.258;2022-12-29T15:15:49;8.20;99.90
41762;DHT22;27441;50.860;0.258;2022-12-29T15:18:29;8.20;99.90
41762;DHT22;27441;50.860;0.258;2022-12-29T15:21:05;8.20;99.90
41762;DHT22;27441;50.860;0.258;2022-12-29T15:23:33;8.10;99.90
41762;DHT22;27441;50.860;0.258;2022-12-29T15:26:05;8.10;99.90
41762;DHT22;27441;50.860;0.258;2022-12-29T15:28:38;8.10;99.90
41762;DHT22;27441;50.860;0.258;2022-12-29T15:31:09;8.00;99.90
41762;DHT22;27441;50.860;0.258;2022-12-29T15:33:37;7.90;99.90
41762;DHT22;27441;50.860;0.258;2022-12-29T15:36:11;7.90;99.90
41762;DHT22;27441;50.860;0.258;2022-12-29T15:38:38;8.00;99.90
41762;DHT22;27441;50.860;0.258;2022-12-29T15:44:01;8.10;99.90
41762;DHT22;27441;50.860;0.258;2022-12-29T15:46:32;8.10;99.90
41762;DHT22;27441;50.860;0.258;2022-12-29T15:48:58;8.10;99.90
41762;DHT22;27441;50.860;0.258;2022-12-29T15:51:29;8.00;99.90
41762;DHT22;27441;50.860;0.258;2022-12-29T15:53:57;7.90;99.90
41762;DHT22;27441;50.860;0.258;2022-12-29T15:56:23;7.80;99.90
41762;DHT22;27441;50.860;0.258;2022-12-29T15:58:51;7.90;99.90
41762;DHT22;27441;50.860;0.258;2022-12-29T16:03:52;7.80;99.90
41762;DHT22;27441;50.860;0.258;2022-12-29T16:06:35;7.80;99.90
41762;DHT22;27441;50.860;0.258;2022-12-29T16:11:35;7.80;99.90
41762;DHT22;27441;50.860;0.258;2022-12-29T16:14:07;7.80;99.90
41762;DHT22;27441;50.860;0.258;2022-12-29T16:16:39;7.80;99.90
41762;DHT22;27441;50.860;0.258;2022-12-29T16:19:35;7.80;99.90
41762;DHT22;27441;50.860;0.258;2022-12-29T16:22:00;7.70;99.90
41762;DHT22;27441;50.860;0.258;2022-12-29T16:24:26;7.60;99.90
41762;DHT22;27441;50.860;0.258;2022-12-29T16:29:32;7.80;99.90
41762;DHT22;27441;50.860;0.258;2022-12-29T16:32:00;7.70;99.90
41762;DHT22;27441;50.860;0.258;2022-12-29T16:36:54;7.60;99.90
41762;DHT22;27441;50.860;0.258;2022-12-29T16:39:24;7.60;99.90
41762;DHT22;27441;50.860;0.258;2022-12-29T16:41:52;7.60;99.90
41762;DHT22;27441;50.860;0.258;2022-12-29T16:44:27;7.50;99.90
41762;DHT22;27441;50.860;0.258;2022-12-29T16:47:11;7.50;99.90
41762;DHT22;27441;50.860;0.258;2022-12-29T16:49:42;7.50;99.90
41762;DHT22;27441;50.860;0.258;2022-12-29T16:52:12;7.50;99.90
41762;DHT22;27441;50.860;0.258;2022-12-29T16:54:38;7.40;99.90
41762;DHT22;27441;50.860;0.258;2022-12-29T16:57:04;7.40;99.90
41762;DHT22;27441;50.860;0.258;2022-12-29T16:59:40;7.40;99.90
41762;DHT22;27441;50.860;0.258;2022-12-29T17:02:14;7.40;99.90
41762;DHT22;27441;50.860;0.258;2022-12-29T17:04:40;7.40;99.90
41762;DHT22;27441;50.860;0.258;2022-12-29T17:07:15;7.30;99.90
41762;DHT22;27441;50.860;0.258;2022-12-29T17:09:41;7.30;99.90
41762;DHT22;27441;50.860;0.258;2022-12-29T17:12:33;7.30;99.90
41762;DHT22;27441;50.860;0.258;2022-12-29T17:17:47;7.30;99.90
41762;DHT22;27441;50.860;0.258;2022-12-29T17:20:15;7.40;99.90
41762;DHT22;27441;50.860;0.258;2022-12-29T17:22:41;7.30;99.90
41762;DHT22;27441;50.860;0.258;2022-12-29T17:25:11;7.30;99.90
41762;DHT22;27441;50.860;0.258;2022-12-29T17:27:37;7.10;99.90
41762;DHT22;27441;50.860;0.258;2022-12-29T17:30:12;7.10;99.90
41762;DHT22;27441;50.860;0.258;2022-12-29T17:32:39;7.00;99.90
41762;DHT22;27441;50.860;0.258;2022-12-29T17:35:08;7.00;99.90
41762;DHT22;27441;50.860;0.258;2022-12-29T17:37:37;7.00;99.90
41762;DHT22;27441;50.860;0.258;2022-12-29T17:40:04;7.00;99.90
41762;DHT22;27441;50.860;0.258;2022-12-29T17:42:30;7.10;99.90
41762;DHT22;27441;50.860;0.258;2022-12-29T17:44:58;7.10;99.90
41762;DHT22;27441;50.860;0.258;2022-12-29T17:47:24;7.10;99.90
41762;DHT22;27441;50.860;0.258;2022-12-29T17:49:49;7.10;99.90
41762;DHT22;27441;50.860;0.258;2022-12-29T17:52:15;7.20;99.90
41762;DHT22;27441;50.860;0.258;2022-12-29T17:54:44;7.30;99.90
41762;DHT22;27441;50.860;0.258;2022-12-29T17:57:14;7.40;99.90
41762;DHT22;27441;50.860;0.258;2022-12-29T17:59:40;7.40;99.90
41762;DHT22;27441;50.860;0.258;2022-12-29T18:02:17;7.50;99.90
41762;DHT22;27441;50.860;0.258;2022-12-29T18:04:45;7.50;99.90
41762;DHT22;27441;50.860;0.258;2022-12-29T18:07:11;7.50;99.90
41762;DHT22;27441;50.860;0.258;2022-12-29T18:09:36;7.50;99.90
41762;DHT22;27441;50.860;0.258;2022-12-29T18:12:02;7.50;99.90
41762;DHT22;27441;50.860;0.258;2022-12-29T18:14:28;7.50;99.90
41762;DHT22;27441;50.860;0.258;2022-12-29T18:16:53;7.40;99.90
41762;DHT22;27441;50.860;0.258;2022-12-29T18:19:20;7.40;99.90
41762;DHT22;27441;50.860;0.258;2022-12-29T18:21:45;7.40;99.90
41762;DHT22;27441;50.860;0.258;2022-12-29T18:24:14;7.30;99.90
41762;DHT22;27441;50.860;0.258;2022-12-29T18:26:39;7.40;99.90
41762;DHT22;27441;50.860;0.258;2022-12-29T18:29:05;7.40;99.90
41762;DHT22;27441;50.860;0.258;2022-12-29T18:31:32;7.40;99.90
41762;DHT22;27441;50.860;0.258;2022-12-29T18:33:58;7.40;99.90
41762;DHT22;27441;50.860;0.258;2022-12-29T18:36:24;7.30;99.90
41762;DHT22;27441;50.860;0.258;2022-12-29T18:38:50;7.20;99.90
41762;DHT22;27441;50.860;0.258;2022-12-29T18:41:23;7.20;99.90
41762;DHT22;27441;50.860;0.258;2022-12-29T18:43:49;7.20;99.90
41762;DHT22;27441;50.860;0.258;2022-12-29T18:46:15;7.20;99.90
41762;DHT22;27441;50.860;0.258;2022-12-29T18:48:41;7.20;99.90
41762;DHT22;27441;50.860;0.258;2022-12-29T18:51:12;7.20;99.90
41762;DHT22;27441;50.860;0.258;2022-12-29T18:53:39;7.20;99.90
41762;DHT22;27441;50.860;0.258;2022-12-29T18:56:05;7.10;99.90
41762;DHT22;27441;50.860;0.258;2022-12-29T18:58:31;7.10;99.90
41762;DHT22;27441;50.860;0.258;2022-12-29T19:00:57;7.10;99.90
41762;DHT22;27441;50.860;0.258;2022-12-29T19:03:23;7.00;99.90
41762;DHT22;27441;50.860;0.258;2022-12-29T19:05:48;7.00;99.90
41762;DHT22;27441;50.860;0.258;2022-12-29T19:08:14;7.00;99.90
41762;DHT22;27441;50.860;0.258;2022-12-29T19:10:40;7.10;99.90
41762;DHT22;27441;50.860;0.258;2022-12-29T19:13:06;7.10;99.90
41762;DHT22;27441;50.860;0.258;2022-12-29T19:15:35;7.10;99.90
41762;DHT22;27441;50.860;0.258;2022-12-29T19:18:04;7.10;99.90
41762;DHT22;27441;50.860;0.258;2022-12-29T19:20:31;7.10;99.90
41762;DHT22;27441;50.860;0.258;2022-12-29T19:22:57;7.10;99.90
41762;DHT22;27441;50.860;0.258;2022-12-29T19:25:24;7.10;99.90
41762;DHT22;27441;50.860;0.258;2022-12-29T19:27:49;7.10;99.90
41762;DHT22;27441;50.860;0.258;2022-12-29T19:30:15;7.10;99.90
41762;DHT22;27441;50.860;0.258;2022-12-29T19:32:41;7.00;99.90
41762;DHT22;27441;50.860;0.258;2022-12-29T19:35:07;7.00;99.90
41762;DHT22;27441;50.860;0.258;2022-12-29T19:37:33;7.00;99.90
41762;DHT22;27441;50.860;0.258;2022-12-29T19:40:01;7.00;99.90
41762;DHT22;27441;50.860;0.258;2022-12-29T19:42:27;7.00;99.90
41762;DHT22;27441;50.860;0.258;2022-12-29T19:44:53;7.00;99.90
41762;DHT22;27441;50.860;0.258;2022-12-29T19:47:19;7.10;99.90
41762;DHT22;27441;50.860;0.258;2022-12-29T19:49:44;7.00;99.90
41762;DHT22;27441;50.860;0.258;2022-12-29T19:52:10;7.10;99.90
41762;DHT22;27441;50.860;0.258;2022-12-29T19:54:36;7.10;99.90
41762;DHT22;27441;50.860;0.258;2022-12-29T19:57:01;7.20;99.90
41762;DHT22;27441;50.860;0.258;2022-12-29T19:59:27;7.30;99.90
41762;DHT22;27441;50.860;0.258;2022-12-29T20:01:53;7.40;99.90
41762;DHT22;27441;50.860;0.258;2022-12-29T20:04:19;7.40;99.90